Terminal Aerodrome Forecast
Issued by NWS

Home | Current Version | Previous Version | Text Only | Print | Product List | Glossary On
Versions: 1 2 3 4 5 6 7 8 9 10 11 12 13 14 15 16 17 18 19 20
389
FTUS43 KGRR 201140
TAFLAN
TAF
KLAN 201140Z 2012/2112 10004KT 2SM BR BKN004
     FM201330 14004KT 4SM BR OVC012
     FM201430 16005KT P6SM BKN025
     FM201800 18006KT P6SM SCT035
     FM210600 16004KT 4SM BR BKN250=

USA.gov is the U.S. government's official web portal to all federal, state and local government web resources and services.